バンギ の空港の天気 - METARとTAF

バンギ・ムポコ国際空港 ( FEFF / BGF ) - 中央アフリカ バンギ
飛行場実況気象(Metar)
観測時間09/22 22:00 WAT (09/22 21:00 UTC)
風向・風速静穏 0m/s
視程8000m
天気現象
少しの雲 雲底高度 400m
少しの雲 雲底高度 1010m
気温25℃
湿度78%
気圧1012hPa
METARFEFF 222100Z 00000KT 8000 TS FEW013 FEW033CB 25/21 Q1012 BECMG NSW
過去の天気等 Google飛行場航空写真 Wunderground天気予報

過去48時間のMETAR

飛行場予報(TAF)
発表時間: 9/22 18:00 WAT (9/22 17:00 UTC)
予報対象時間: 22日19時 WAT ~ 24日1時 WAT
風向・風速不定 1m/s
視程8000m
天気現象
全天の4割程度の雲 雲底高度 400m
少しの積乱雲 雲底高度 1220m
23日2時 WAT ~ 23日4時 WAT に徐々に
天気現象運行に影響にある天気現象が終了
TAF FEFF 221700Z 2218/2324 VRB02KT 8000 TS SCT013 FEW040CB
BECMG 2301/2303 NSW